createdAt,value
2023-10-22T00:00:22.138Z,99956.23
2023-10-22T00:04:06.957Z,99953.64
2023-10-22T00:07:10.539Z,99956.95
2023-10-22T00:10:13.948Z,99958.39
2023-10-22T00:13:17.377Z,99958.20
2023-10-22T00:16:20.883Z,99957.05
2023-10-22T00:19:24.506Z,99952.16
2023-10-22T00:22:27.972Z,99953.38
2023-10-22T00:25:34.636Z,99957.05
2023-10-22T00:28:38.060Z,99962.00
2023-10-22T00:31:41.762Z,99966.10
2023-10-22T00:34:45.275Z,99960.19
2023-10-22T00:37:48.801Z,99955.73
2023-10-22T00:40:52.576Z,99952.88
2023-10-22T00:43:56.144Z,99949.33
2023-10-22T00:47:00.052Z,99947.11
2023-10-22T00:50:04.372Z,99949.27
2023-10-22T00:53:08.877Z,99953.14
2023-10-22T00:56:13.556Z,99955.45
2023-10-22T00:59:17.131Z,99953.38
2023-10-22T01:02:21.074Z,99943.37
2023-10-22T01:05:25.475Z,99941.85
2023-10-22T01:08:29.009Z,99940.08
2023-10-22T01:11:32.997Z,99941.86
2023-10-22T01:14:36.699Z,99944.16
2023-10-22T01:17:40.573Z,99942.98
2023-10-22T01:20:44.140Z,99936.73
2023-10-22T01:23:47.613Z,99935.71
2023-10-22T01:26:51.146Z,99931.98
2023-10-22T01:29:54.706Z,99942.01
2023-10-22T01:32:58.251Z,99941.25
2023-10-22T01:36:02.748Z,99938.92
2023-10-22T01:39:10.260Z,99944.23
2023-10-22T01:42:13.767Z,99942.22
2023-10-22T01:45:17.590Z,99938.58
2023-10-22T01:48:21.117Z,99933.45
2023-10-22T01:51:25.020Z,99933.04
2023-10-22T01:54:28.455Z,99936.59
2023-10-22T01:57:33.782Z,99937.69
2023-10-22T02:00:37.324Z,99941.17
2023-10-22T02:03:45.875Z,99944.41
2023-10-22T02:06:49.434Z,99941.77
2023-10-22T02:09:54.609Z,99936.73
2023-10-22T02:12:58.136Z,99936.11
2023-10-22T02:16:01.695Z,99931.92
2023-10-22T02:19:05.213Z,99927.95
2023-10-22T02:22:10.199Z,99922.17
2023-10-22T02:25:13.610Z,99917.64
2023-10-22T02:28:17.892Z,99914.52
2023-10-22T02:31:21.445Z,99913.86
2023-10-22T02:34:25.983Z,99914.17
2023-10-22T02:37:29.387Z,99917.43
2023-10-22T02:40:35.631Z,99918.02
2023-10-22T02:43:39.054Z,99923.24
2023-10-22T02:46:42.589Z,99927.57
2023-10-22T02:49:46.133Z,99931.98
2023-10-22T02:52:49.604Z,99933.22
2023-10-22T02:56:01.493Z,99931.49
2023-10-22T02:59:05.264Z,99929.52
2023-10-22T03:02:08.677Z,99928.45
2023-10-22T03:05:12.157Z,99921.36
2023-10-22T03:08:15.917Z,99922.58
2023-10-22T03:11:20.407Z,99923.30
2023-10-22T03:14:23.927Z,99926.88
2023-10-22T03:17:27.677Z,99930.70
2023-10-22T03:20:33.759Z,99929.72
2023-10-22T03:23:41.493Z,99937.23
2023-10-22T03:26:46.383Z,99941.27
2023-10-22T03:29:49.974Z,99945.63
2023-10-22T03:32:56.075Z,99943.74
2023-10-22T03:36:00.270Z,99946.36
2023-10-22T03:39:06.683Z,99948.27
2023-10-22T03:42:10.201Z,99951.02
2023-10-22T03:45:13.824Z,99950.11
2023-10-22T03:48:17.554Z,99950.17
2023-10-22T03:51:21.150Z,99942.58
2023-10-22T03:54:24.638Z,99938.36
2023-10-22T03:57:28.124Z,99930.77
2023-10-22T04:00:31.779Z,99923.16
2023-10-22T04:03:35.390Z,99919.48
2023-10-22T04:06:38.987Z,99915.56
2023-10-22T04:09:42.741Z,99916.08
2023-10-22T04:12:47.565Z,99916.41
2023-10-22T04:15:52.339Z,99918.19
2023-10-22T04:18:55.826Z,99919.09
2023-10-22T04:21:59.246Z,99919.54
2023-10-22T04:25:03.090Z,99921.83
2023-10-22T04:28:07.195Z,99913.14
2023-10-22T04:31:10.985Z,99901.45
2023-10-22T04:34:14.435Z,99898.41
2023-10-22T04:37:20.283Z,99897.50
2023-10-22T04:40:26.635Z,99899.60
2023-10-22T04:43:30.759Z,99896.79
2023-10-22T04:46:34.293Z,99901.67
2023-10-22T04:49:37.801Z,99901.91
2023-10-22T04:52:41.281Z,99899.30
2023-10-22T04:55:53.914Z,99900.34
2023-10-22T04:58:57.360Z,99900.42
2023-10-22T05:02:01.547Z,99893.77
2023-10-22T05:05:06.177Z,99895.50
2023-10-22T05:08:10.217Z,99897.17
2023-10-22T05:11:17.867Z,99897.67
2023-10-22T05:14:21.373Z,99898.27
2023-10-22T05:17:25.601Z,99901.52
2023-10-22T05:20:30.158Z,99907.63
2023-10-22T05:23:34.768Z,99909.31
2023-10-22T05:26:38.231Z,99913.97
2023-10-22T05:29:41.743Z,99918.45
2023-10-22T05:32:45.307Z,99926.98
2023-10-22T05:35:48.946Z,99933.44
2023-10-22T05:38:52.551Z,99939.36
2023-10-22T05:41:56.029Z,99938.62
2023-10-22T05:45:01.332Z,99937.90
2023-10-22T05:48:05.914Z,99933.31
2023-10-22T05:51:09.622Z,99940.21
2023-10-22T05:54:13.080Z,99945.70
2023-10-22T05:57:16.553Z,99948.45
2023-10-22T06:00:20.283Z,99951.15
2023-10-22T06:03:24.323Z,99953.14
2023-10-22T06:06:28.464Z,99956.13
2023-10-22T06:09:31.929Z,99960.98
2023-10-22T06:12:35.334Z,99958.84
2023-10-22T06:15:40.564Z,99960.28
2023-10-22T06:18:44.227Z,99961.80
2023-10-22T06:21:47.740Z,99958.93
2023-10-22T06:24:51.553Z,99960.21
2023-10-22T06:27:56.071Z,99965.25
2023-10-22T06:31:06.031Z,99964.77
2023-10-22T06:34:09.567Z,99961.00
2023-10-22T06:37:13.039Z,99964.45
2023-10-22T06:40:16.820Z,99963.95
2023-10-22T06:43:20.212Z,99962.81
2023-10-22T06:46:23.739Z,99966.17
2023-10-22T06:49:27.326Z,99969.29
2023-10-22T06:52:30.831Z,99968.50
2023-10-22T06:55:34.263Z,99966.96
2023-10-22T06:58:37.905Z,99966.05
2023-10-22T07:01:41.436Z,99965.77
2023-10-22T07:04:45.594Z,99969.02
2023-10-22T07:07:49.005Z,99968.11
2023-10-22T07:10:52.793Z,99967.44
2023-10-22T07:13:56.247Z,99967.47
2023-10-22T07:16:59.730Z,99968.54
2023-10-22T07:20:04.525Z,99972.52
2023-10-22T07:23:08.078Z,99974.36
2023-10-22T07:26:11.510Z,99970.84
2023-10-22T07:29:15.009Z,99971.40
2023-10-22T07:32:18.972Z,99971.27
2023-10-22T07:35:22.868Z,99975.60
2023-10-22T07:38:30.160Z,99977.53
2023-10-22T07:41:33.698Z,99979.01
2023-10-22T07:44:37.284Z,99981.65
2023-10-22T07:47:41.079Z,99984.75
2023-10-22T07:50:44.577Z,99983.55
2023-10-22T07:53:48.483Z,99980.27
2023-10-22T07:56:51.974Z,99977.64
2023-10-22T07:59:56.929Z,99980.66
2023-10-22T08:03:00.531Z,99981.95
2023-10-22T08:06:06.570Z,99981.20
2023-10-22T08:09:10.041Z,99984.88
2023-10-22T08:12:14.112Z,99985.64
2023-10-22T08:15:17.897Z,99984.93
2023-10-22T08:18:21.974Z,99982.84
2023-10-22T08:21:25.741Z,99984.84
2023-10-22T08:24:29.946Z,99982.24
2023-10-22T08:27:34.926Z,99982.25
2023-10-22T08:30:38.440Z,99984.84
2023-10-22T08:33:41.924Z,99985.00
2023-10-22T08:36:45.413Z,99985.30
2023-10-22T08:39:48.848Z,99984.42
2023-10-22T08:42:56.275Z,99986.14
2023-10-22T08:46:00.264Z,99988.87
2023-10-22T08:49:09.788Z,99991.05
2023-10-22T08:52:13.260Z,99989.36
2023-10-22T08:55:16.857Z,99990.88
2023-10-22T08:58:21.127Z,99995.19
2023-10-22T09:01:27.068Z,99995.85
2023-10-22T09:04:33.355Z,99998.29
2023-10-22T09:07:54.801Z,100003.66
2023-10-22T09:11:13.311Z,100004.60
2023-10-22T09:14:22.839Z,100004.20
2023-10-22T09:17:26.342Z,100006.81
2023-10-22T09:20:30.666Z,100010.30
2023-10-22T09:23:34.226Z,100009.56
2023-10-22T09:26:46.144Z,100009.89
2023-10-22T09:29:50.022Z,100014.95
2023-10-22T09:32:53.737Z,100018.13
2023-10-22T09:36:02.427Z,100024.05
2023-10-22T09:39:07.549Z,100029.13
2023-10-22T09:42:17.466Z,100028.11
2023-10-22T09:45:25.884Z,100029.83
2023-10-22T09:48:35.382Z,100029.74
2023-10-22T09:51:40.545Z,100029.08
2023-10-22T09:54:45.861Z,100033.36
2023-10-22T09:57:49.919Z,100030.87
2023-10-22T10:00:54.380Z,100033.02
2023-10-22T10:04:00.128Z,100031.55
2023-10-22T10:07:04.958Z,100031.81
2023-10-22T10:10:11.064Z,100032.90
2023-10-22T10:13:15.399Z,100034.44
2023-10-22T10:16:23.659Z,100035.13
2023-10-22T10:19:27.267Z,100032.12
2023-10-22T10:22:40.233Z,100029.54
2023-10-22T10:25:43.770Z,100034.94
2023-10-22T10:28:51.108Z,100034.73
2023-10-22T10:31:56.450Z,100033.77
2023-10-22T10:35:02.730Z,100032.45
2023-10-22T10:38:22.861Z,100041.37
2023-10-22T10:41:51.991Z,100037.29
2023-10-22T10:45:09.020Z,100037.37
2023-10-22T10:48:41.072Z,100038.43
2023-10-22T10:52:00.179Z,100034.23
2023-10-22T10:55:09.757Z,100038.00
2023-10-22T10:58:14.423Z,100039.84
2023-10-22T11:01:18.396Z,100037.33
2023-10-22T11:04:21.914Z,100041.50
2023-10-22T11:07:27.577Z,100042.02
2023-10-22T11:10:31.313Z,100044.63
2023-10-22T11:13:35.164Z,100045.75
2023-10-22T11:16:51.790Z,100047.16
2023-10-22T11:19:55.309Z,100049.88
2023-10-22T11:22:58.971Z,100050.44
2023-10-22T11:26:02.927Z,100058.99
2023-10-22T11:29:06.472Z,100064.66
2023-10-22T11:32:13.372Z,100068.42
2023-10-22T11:35:17.719Z,100071.13
2023-10-22T11:38:23.441Z,100075.83
2023-10-22T11:41:26.845Z,100078.05
2023-10-22T11:44:32.324Z,100080.70
2023-10-22T11:47:35.755Z,100086.40
2023-10-22T11:50:40.120Z,100088.86
2023-10-22T11:53:44.236Z,100093.30
2023-10-22T11:56:48.071Z,100097.08
2023-10-22T11:59:51.488Z,100100.67
2023-10-22T12:02:55.194Z,100105.31
2023-10-22T12:05:58.833Z,100107.59
2023-10-22T12:09:04.000Z,100108.07
2023-10-22T12:12:08.093Z,100110.17
2023-10-22T12:15:13.433Z,100114.01
2023-10-22T12:18:16.997Z,100115.23
2023-10-22T12:21:20.705Z,100115.87
2023-10-22T12:24:27.227Z,100121.52
2023-10-22T12:27:32.290Z,100125.48
2023-10-22T12:30:35.955Z,100129.74
2023-10-22T12:33:39.611Z,100129.02
2023-10-22T12:36:43.087Z,100129.71
2023-10-22T12:39:46.618Z,100137.70
2023-10-22T12:42:50.233Z,100137.88
2023-10-22T12:45:53.782Z,100138.10
2023-10-22T12:48:57.623Z,100141.45
2023-10-22T12:52:01.067Z,100145.19
2023-10-22T12:55:06.502Z,100145.78
2023-10-22T12:58:10.244Z,100154.37
2023-10-22T13:01:15.768Z,100157.92
2023-10-22T13:04:19.341Z,100163.53
2023-10-22T13:07:22.865Z,100165.23
2023-10-22T13:10:26.378Z,100170.08
2023-10-22T13:13:29.790Z,100179.13
2023-10-22T13:16:33.698Z,100180.92
2023-10-22T13:19:37.374Z,100190.35
2023-10-22T13:22:41.022Z,100191.45
2023-10-22T13:25:44.464Z,100190.23
2023-10-22T13:28:48.129Z,100193.10
2023-10-22T13:31:51.617Z,100196.32
2023-10-22T13:34:55.182Z,100197.19
2023-10-22T13:37:58.641Z,100200.27
2023-10-22T13:41:03.386Z,100200.25
2023-10-22T13:44:07.033Z,100204.36
2023-10-22T13:47:11.390Z,100206.89
2023-10-22T13:50:15.565Z,100215.22
2023-10-22T13:53:19.046Z,100213.95
2023-10-22T13:56:22.488Z,100221.48
2023-10-22T13:59:26.046Z,100218.11
2023-10-22T14:02:32.188Z,100221.38
2023-10-22T14:05:35.793Z,100222.92
2023-10-22T14:08:40.737Z,100224.92
2023-10-22T14:11:44.237Z,100227.95
2023-10-22T14:14:49.260Z,100228.38
2023-10-22T14:17:52.815Z,100232.64
2023-10-22T14:20:56.299Z,100234.32
2023-10-22T14:23:59.752Z,100236.62
2023-10-22T14:27:13.439Z,100239.14
2023-10-22T14:30:18.066Z,100241.85
2023-10-22T14:33:22.734Z,100242.48
2023-10-22T14:36:26.390Z,100244.48
2023-10-22T14:39:30.012Z,100250.45
2023-10-22T14:42:33.591Z,100252.35
2023-10-22T14:45:37.145Z,100263.20
2023-10-22T14:48:41.521Z,100267.52
2023-10-22T14:51:45.067Z,100270.27
2023-10-22T14:54:48.644Z,100273.46
2023-10-22T14:57:52.101Z,100280.66
2023-10-22T15:01:00.449Z,100287.99
2023-10-22T15:04:04.515Z,100288.30
2023-10-22T15:07:09.528Z,100289.05
2023-10-22T15:10:13.051Z,100291.30
2023-10-22T15:13:16.683Z,100291.38
2023-10-22T15:16:20.401Z,100295.88
2023-10-22T15:19:24.545Z,100295.31
2023-10-22T15:22:28.183Z,100298.20
2023-10-22T15:25:32.371Z,100301.05
2023-10-22T15:28:36.374Z,100292.67
2023-10-22T15:31:40.410Z,100287.44
2023-10-22T15:34:44.419Z,100301.80
2023-10-22T15:37:48.655Z,100311.14
2023-10-22T15:40:53.311Z,100316.23
2023-10-22T15:43:58.169Z,100318.67
2023-10-22T15:47:02.051Z,100316.63
2023-10-22T15:50:07.144Z,100313.73
2023-10-22T15:53:11.555Z,100332.42
2023-10-22T15:56:15.625Z,100346.73
2023-10-22T15:59:19.852Z,100350.70
2023-10-22T16:02:23.837Z,100356.17
2023-10-22T16:05:27.546Z,100362.48
2023-10-22T16:08:31.202Z,100361.30
2023-10-22T16:11:35.219Z,100359.83
2023-10-22T16:14:40.380Z,100360.06
2023-10-22T16:17:44.423Z,100359.31
2023-10-22T16:20:48.707Z,100365.42
2023-10-22T16:23:52.633Z,100368.70
2023-10-22T16:26:56.613Z,100373.77
2023-10-22T16:30:00.509Z,100377.63
2023-10-22T16:33:04.759Z,100382.51
2023-10-22T16:36:12.754Z,100380.55
2023-10-22T16:39:20.292Z,100384.34
2023-10-22T16:42:25.456Z,100394.80
2023-10-22T16:45:29.743Z,100401.13
2023-10-22T16:48:34.190Z,100404.52
2023-10-22T16:51:38.615Z,100412.32
2023-10-22T16:54:43.036Z,100408.77
2023-10-22T16:57:47.552Z,100412.59
2023-10-22T17:00:51.874Z,100410.85
2023-10-22T17:03:56.453Z,100411.89
2023-10-22T17:07:00.717Z,100416.60
2023-10-22T17:10:09.179Z,100417.14
2023-10-22T17:13:14.001Z,100415.95
2023-10-22T17:16:18.318Z,100421.90
2023-10-22T17:19:23.535Z,100423.52
2023-10-22T17:22:27.622Z,100423.91
2023-10-22T17:25:31.246Z,100423.98
2023-10-22T17:28:35.210Z,100422.38
2023-10-22T17:31:39.082Z,100427.42
2023-10-22T17:34:42.969Z,100430.05
2023-10-22T17:37:46.834Z,100430.17
2023-10-22T17:40:55.902Z,100428.45
2023-10-22T17:43:59.847Z,100430.02
2023-10-22T17:47:04.315Z,100431.14
2023-10-22T17:50:09.396Z,100433.10
2023-10-22T17:53:26.552Z,100436.39
2023-10-22T17:56:31.329Z,100444.56
2023-10-22T17:59:35.314Z,100447.10
2023-10-22T18:02:39.735Z,100451.73
2023-10-22T18:05:43.769Z,100450.48
2023-10-22T18:08:49.012Z,100453.44
2023-10-22T18:11:53.136Z,100456.73
2023-10-22T18:14:57.314Z,100457.94
2023-10-22T18:18:01.556Z,100462.38
2023-10-22T18:21:06.088Z,100459.30
2023-10-22T18:24:13.473Z,100465.92
2023-10-22T18:27:17.450Z,100474.15
2023-10-22T18:30:21.827Z,100477.10
2023-10-22T18:33:26.261Z,100474.41
2023-10-22T18:36:30.504Z,100483.58
2023-10-22T18:39:34.706Z,100490.33
2023-10-22T18:42:45.527Z,100496.25
2023-10-22T18:45:52.093Z,100497.59
2023-10-22T18:48:57.269Z,100497.54
2023-10-22T18:52:01.743Z,100497.86
2023-10-22T18:55:08.279Z,100503.16
2023-10-22T18:58:12.296Z,100501.38
2023-10-22T19:01:23.856Z,100503.54
2023-10-22T19:04:28.128Z,100506.07
2023-10-22T19:07:32.490Z,100508.63
2023-10-22T19:10:37.419Z,100508.55
2023-10-22T19:13:41.564Z,100513.20
2023-10-22T19:16:45.880Z,100518.30
2023-10-22T19:19:50.441Z,100529.23
2023-10-22T19:22:54.901Z,100532.62
2023-10-22T19:26:00.231Z,100536.66
2023-10-22T19:29:04.198Z,100541.00
2023-10-22T19:32:08.447Z,100537.86
2023-10-22T19:35:14.629Z,100538.05
2023-10-22T19:38:18.537Z,100541.19
2023-10-22T19:41:22.684Z,100541.02
2023-10-22T19:44:27.145Z,100543.95
2023-10-22T19:47:31.094Z,100542.98
2023-10-22T19:50:34.821Z,100547.26
2023-10-22T19:53:38.785Z,100547.41
2023-10-22T19:56:42.400Z,100548.13
2023-10-22T19:59:46.116Z,100549.33
2023-10-22T20:02:49.771Z,100553.15
2023-10-22T20:05:53.780Z,100553.58
2023-10-22T20:08:57.311Z,100556.52
2023-10-22T20:12:03.436Z,100555.60
2023-10-22T20:15:09.388Z,100558.95
2023-10-22T20:18:13.003Z,100561.88
2023-10-22T20:21:17.999Z,100562.67
2023-10-22T20:24:21.529Z,100568.27
2023-10-22T20:27:25.577Z,100569.77
2023-10-22T20:30:29.144Z,100575.15
2023-10-22T20:33:33.034Z,100578.17
2023-10-22T20:36:37.892Z,100577.17
2023-10-22T20:39:42.329Z,100574.73
2023-10-22T20:42:46.189Z,100571.91
2023-10-22T20:45:49.799Z,100574.27
2023-10-22T20:48:53.296Z,100578.20
2023-10-22T20:51:56.912Z,100579.55
2023-10-22T20:55:00.441Z,100577.73
2023-10-22T20:58:04.100Z,100578.27
2023-10-22T21:01:15.504Z,100580.75
2023-10-22T21:04:20.003Z,100578.05
2023-10-22T21:07:23.568Z,100575.65
2023-10-22T21:10:27.065Z,100579.70
2023-10-22T21:13:30.537Z,100584.10
2023-10-22T21:16:34.118Z,100590.09
2023-10-22T21:19:38.449Z,100590.19
2023-10-22T21:22:41.972Z,100590.29
2023-10-22T21:25:45.410Z,100588.27
2023-10-22T21:28:49.138Z,100587.63
2023-10-22T21:31:52.829Z,100586.77
2023-10-22T21:34:56.296Z,100584.34
2023-10-22T21:37:59.752Z,100594.94
2023-10-22T21:41:03.934Z,100595.08
2023-10-22T21:44:09.384Z,100592.89
2023-10-22T21:47:12.955Z,100594.08
2023-10-22T21:50:16.635Z,100598.48
2023-10-22T21:53:20.103Z,100600.49
2023-10-22T21:56:23.521Z,100605.88
2023-10-22T21:59:26.988Z,100605.57
2023-10-22T22:02:30.483Z,100610.66
2023-10-22T22:05:33.994Z,100612.98
2023-10-22T22:08:37.423Z,100612.99
2023-10-22T22:11:40.856Z,100619.95
2023-10-22T22:14:44.335Z,100625.38
2023-10-22T22:17:48.676Z,100631.21
2023-10-22T22:20:52.270Z,100637.00
2023-10-22T22:23:55.759Z,100639.65
2023-10-22T22:26:59.346Z,100642.46
2023-10-22T22:30:03.453Z,100642.34
2023-10-22T22:33:07.274Z,100649.81
2023-10-22T22:36:11.589Z,100652.83
2023-10-22T22:39:15.100Z,100652.46
2023-10-22T22:42:18.585Z,100660.83
2023-10-22T22:45:22.155Z,100661.81
2023-10-22T22:48:25.822Z,100661.91
2023-10-22T22:51:29.491Z,100664.45
2023-10-22T22:54:33.057Z,100671.10
2023-10-22T22:57:36.576Z,100667.39
2023-10-22T23:00:40.168Z,100670.79
2023-10-22T23:03:43.659Z,100671.23
2023-10-22T23:06:47.190Z,100675.05
2023-10-22T23:09:51.158Z,100674.73
2023-10-22T23:12:54.680Z,100678.45
2023-10-22T23:15:58.269Z,100678.83
2023-10-22T23:19:01.796Z,100677.52
2023-10-22T23:22:05.290Z,100679.88
2023-10-22T23:25:09.961Z,100682.73
2023-10-22T23:28:13.493Z,100681.45
2023-10-22T23:31:17.071Z,100682.50
2023-10-22T23:34:20.570Z,100680.67
2023-10-22T23:37:24.044Z,100684.27
2023-10-22T23:40:27.444Z,100682.60
2023-10-22T23:43:31.010Z,100684.66
2023-10-22T23:46:34.506Z,100692.44
2023-10-22T23:49:37.966Z,100693.73
2023-10-22T23:52:41.458Z,100702.00
2023-10-22T23:55:46.617Z,100703.09
2023-10-22T23:58:51.923Z,100701.94
